createdAt,value
2023-01-22T00:02:36.909Z,100912.16
2023-01-22T00:07:38.448Z,100907.66
2023-01-22T00:12:39.953Z,100907.75
2023-01-22T00:17:41.378Z,100903.25
2023-01-22T00:22:42.774Z,100929.16
2023-01-22T00:27:44.217Z,100909.28
2023-01-22T00:32:46.517Z,100927.44
2023-01-22T00:37:48.336Z,100946.78
2023-01-22T00:42:49.752Z,100925.69
2023-01-22T00:47:52.385Z,100934.69
2023-01-22T00:52:53.932Z,100945.16
2023-01-22T00:57:55.362Z,100946.78
2023-01-22T01:03:15.248Z,100952.03
2023-01-22T01:08:16.647Z,100952.78
2023-01-22T01:13:18.065Z,100968.00
2023-01-22T01:18:21.033Z,100970.25
2023-01-22T01:23:23.668Z,100977.31
2023-01-22T01:28:25.555Z,100982.34
2023-01-22T01:33:27.014Z,100989.31
2023-01-22T01:38:28.921Z,100979.91
2023-01-22T01:43:30.665Z,100988.72
2023-01-22T01:48:40.393Z,100985.66
2023-01-22T01:53:44.589Z,100989.03
2023-01-22T01:58:47.191Z,100997.69
2023-01-22T02:03:49.130Z,100999.50
2023-01-22T02:08:53.654Z,101001.50
2023-01-22T02:14:04.706Z,101005.69
2023-01-22T02:19:06.165Z,101007.72
2023-01-22T02:24:16.705Z,101010.06
2023-01-22T02:29:18.145Z,101012.69
2023-01-22T02:34:19.638Z,101029.91
2023-01-22T02:39:21.125Z,101021.84
2023-01-22T02:44:22.548Z,101014.50
2023-01-22T02:49:24.216Z,101023.44
2023-01-22T02:54:25.712Z,101018.97
2023-01-22T02:59:27.132Z,101019.94
2023-01-22T03:04:28.921Z,101030.50
2023-01-22T03:09:30.429Z,101033.28
2023-01-22T03:14:50.344Z,101039.59
2023-01-22T03:20:10.400Z,101041.25
2023-01-22T03:25:11.860Z,101040.97
2023-01-22T03:30:13.392Z,101043.53
2023-01-22T03:35:14.973Z,101041.16
2023-01-22T03:40:17.023Z,101040.22
2023-01-22T03:45:18.598Z,101044.75
2023-01-22T03:50:20.203Z,101044.84
2023-01-22T03:55:21.752Z,101044.94
2023-01-22T04:00:23.163Z,101039.41
2023-01-22T04:05:24.682Z,101044.47
2023-01-22T04:10:26.112Z,101057.31
2023-01-22T04:15:27.578Z,101077.44
2023-01-22T04:20:29.029Z,101077.41
2023-01-22T04:25:30.453Z,101075.03
2023-01-22T04:30:32.556Z,101064.13
2023-01-22T04:35:35.399Z,101071.03
2023-01-22T04:40:36.849Z,101068.72
2023-01-22T04:45:38.316Z,101060.72
2023-01-22T04:50:39.891Z,101055.69
2023-01-22T04:55:42.475Z,101068.81
2023-01-22T05:00:43.922Z,101067.03
2023-01-22T05:05:45.412Z,101074.00
2023-01-22T05:10:46.862Z,101088.94
2023-01-22T05:15:48.280Z,101095.47
2023-01-22T05:20:49.789Z,101094.44
2023-01-22T05:25:51.416Z,101109.72
2023-01-22T05:30:52.917Z,101114.09
2023-01-22T05:36:01.902Z,101131.91
2023-01-22T05:41:03.354Z,101132.25
2023-01-22T05:46:05.326Z,101142.56
2023-01-22T05:51:08.410Z,101133.72
2023-01-22T05:56:10.148Z,101124.94
2023-01-22T06:01:12.390Z,101138.19
2023-01-22T06:06:15.586Z,101143.94
2023-01-22T06:11:17.213Z,101136.44
2023-01-22T06:16:18.703Z,101136.81
2023-01-22T06:21:20.148Z,101141.69
2023-01-22T06:26:21.647Z,101139.91
2023-01-22T06:31:23.412Z,101149.81
2023-01-22T06:36:24.941Z,101162.06
2023-01-22T06:41:26.429Z,101156.56
2023-01-22T06:46:27.911Z,101162.66
2023-01-22T06:51:30.061Z,101167.75
2023-01-22T06:56:31.658Z,101171.09
2023-01-22T07:01:33.135Z,101176.31
2023-01-22T07:06:34.588Z,101184.31
2023-01-22T07:11:36.038Z,101187.28
2023-01-22T07:16:37.588Z,101198.63
2023-01-22T07:21:39.007Z,101210.97
2023-01-22T07:26:40.453Z,101195.16
2023-01-22T07:31:42.703Z,101202.84
2023-01-22T07:36:46.590Z,101213.50
2023-01-22T07:41:48.046Z,101223.34
2023-01-22T07:46:49.545Z,101237.47
2023-01-22T07:51:51.059Z,101238.34
2023-01-22T07:56:52.531Z,101244.44
2023-01-22T08:01:55.105Z,101246.25
2023-01-22T08:06:56.520Z,101233.00
2023-01-22T08:11:57.965Z,101232.47
2023-01-22T08:16:59.377Z,101239.53
2023-01-22T08:22:00.899Z,101236.16
2023-01-22T08:27:02.955Z,101235.94
2023-01-22T08:32:04.698Z,101244.59
2023-01-22T08:37:07.330Z,101254.22
2023-01-22T08:42:08.740Z,101251.25
2023-01-22T08:47:11.488Z,101253.09
2023-01-22T08:52:13.017Z,101266.72
2023-01-22T08:57:15.784Z,101271.78
2023-01-22T09:02:17.330Z,101278.84
2023-01-22T09:07:18.857Z,101264.75
2023-01-22T09:12:20.370Z,101287.69
2023-01-22T09:17:21.774Z,101304.75
2023-01-22T09:22:23.332Z,101305.81
2023-01-22T09:27:24.795Z,101294.00
2023-01-22T09:32:26.311Z,101286.06
2023-01-22T09:37:27.768Z,101286.66
2023-01-22T09:42:34.903Z,101291.81
2023-01-22T09:47:49.056Z,101293.31
2023-01-22T09:52:53.454Z,101310.06
2023-01-22T09:57:56.376Z,101293.31
2023-01-22T10:03:05.385Z,101307.38
2023-01-22T10:08:13.655Z,101297.47
2023-01-22T10:13:18.201Z,101299.97
2023-01-22T10:18:38.646Z,101298.50
2023-01-22T10:23:40.096Z,101301.19
2023-01-22T10:28:47.705Z,101275.72
2023-01-22T10:33:55.620Z,101267.81
2023-01-22T10:39:15.323Z,101295.41
2023-01-22T10:44:23.373Z,101297.25
2023-01-22T10:49:27.503Z,101298.91
2023-01-22T10:54:43.754Z,101301.53
2023-01-22T11:00:02.906Z,101297.31
2023-01-22T11:05:24.730Z,101302.13
2023-01-22T11:10:38.507Z,101310.31
2023-01-22T11:16:10.938Z,101311.25
2023-01-22T11:21:25.885Z,101309.72
2023-01-22T11:26:31.651Z,101318.50
2023-01-22T11:31:44.596Z,101309.72
2023-01-22T11:36:55.381Z,101302.50
2023-01-22T11:42:17.347Z,101298.09
2023-01-22T11:47:33.667Z,101282.19
2023-01-22T11:52:50.020Z,101286.56
2023-01-22T11:58:08.649Z,101268.84
2023-01-22T12:03:31.688Z,101277.28
2023-01-22T12:08:43.459Z,101285.78
2023-01-22T12:14:10.713Z,101270.78
2023-01-22T12:19:46.128Z,101270.13
2023-01-22T12:25:03.202Z,101267.09
2023-01-22T12:30:27.359Z,101276.06
2023-01-22T12:35:31.481Z,101270.13
2023-01-22T12:41:03.729Z,101269.25
2023-01-22T12:46:18.717Z,101270.22
2023-01-22T12:51:39.906Z,101273.94
2023-01-22T12:56:41.381Z,101280.31
2023-01-22T13:01:43.652Z,101287.06
2023-01-22T13:06:46.261Z,101290.44
2023-01-22T13:11:47.744Z,101301.72
2023-01-22T13:16:56.386Z,101307.91
2023-01-22T13:21:59.741Z,101314.81
2023-01-22T13:27:03.343Z,101303.09
2023-01-22T13:32:16.012Z,101295.59
2023-01-22T13:37:25.415Z,101304.06
2023-01-22T13:42:27.809Z,101299.06
2023-01-22T13:47:33.145Z,101292.25
2023-01-22T13:52:34.833Z,101289.25
2023-01-22T13:57:36.249Z,101298.53
2023-01-22T14:02:37.691Z,101311.88
2023-01-22T14:07:39.575Z,101295.41
2023-01-22T14:12:41.046Z,101299.09
2023-01-22T14:17:42.486Z,101314.00
2023-01-22T14:22:43.928Z,101317.00
2023-01-22T14:27:47.620Z,101325.31
2023-01-22T14:32:49.078Z,101325.03
2023-01-22T14:37:52.215Z,101340.53
2023-01-22T14:42:53.813Z,101344.31
2023-01-22T14:47:56.204Z,101336.56
2023-01-22T14:52:57.711Z,101346.97
2023-01-22T14:58:00.415Z,101356.53
2023-01-22T15:03:02.148Z,101357.56
2023-01-22T15:08:03.791Z,101356.31
2023-01-22T15:13:05.223Z,101365.97
2023-01-22T15:18:06.667Z,101375.81
2023-01-22T15:23:08.101Z,101374.63
2023-01-22T15:28:09.509Z,101387.38
2023-01-22T15:33:10.915Z,101404.38
2023-01-22T15:38:12.333Z,101394.97
2023-01-22T15:43:13.743Z,101400.72
2023-01-22T15:48:16.691Z,101409.88
2023-01-22T15:53:18.148Z,101413.47
2023-01-22T15:58:19.728Z,101428.44
2023-01-22T16:03:21.152Z,101429.47
2023-01-22T16:08:22.586Z,101436.44
2023-01-22T16:13:24.060Z,101432.94
2023-01-22T16:18:25.798Z,101438.31
2023-01-22T16:23:27.392Z,101438.91
2023-01-22T16:28:28.880Z,101440.63
2023-01-22T16:33:32.720Z,101436.22
2023-01-22T16:38:36.432Z,101453.03
2023-01-22T16:43:37.925Z,101446.75
2023-01-22T16:48:39.449Z,101457.72
2023-01-22T16:53:40.896Z,101460.63
2023-01-22T16:58:42.635Z,101469.31
2023-01-22T17:03:44.529Z,101470.16
2023-01-22T17:08:45.959Z,101481.41
2023-01-22T17:13:47.723Z,101482.63
2023-01-22T17:18:49.168Z,101479.69
2023-01-22T17:23:50.638Z,101474.78
2023-01-22T17:28:53.259Z,101483.75
2023-01-22T17:33:55.900Z,101492.81
2023-01-22T17:38:57.843Z,101504.09
2023-01-22T17:44:00.844Z,101511.34
2023-01-22T17:49:04.501Z,101512.13
2023-01-22T17:54:06.321Z,101522.66
2023-01-22T17:59:07.925Z,101531.50
2023-01-22T18:04:11.738Z,101526.84
2023-01-22T18:09:13.447Z,101523.53
2023-01-22T18:14:22.394Z,101529.75
2023-01-22T18:19:24.654Z,101526.25
2023-01-22T18:24:27.037Z,101527.84
2023-01-22T18:29:28.597Z,101537.34
2023-01-22T18:34:30.099Z,101544.63
2023-01-22T18:39:31.617Z,101555.16
2023-01-22T18:44:33.042Z,101549.16
2023-01-22T18:49:34.464Z,101560.81
2023-01-22T18:54:36.302Z,101568.59
2023-01-22T18:59:37.820Z,101579.19
2023-01-22T19:04:39.245Z,101577.31
2023-01-22T19:09:41.173Z,101577.31
2023-01-22T19:14:42.578Z,101584.41
2023-01-22T19:19:44.006Z,101593.06
2023-01-22T19:24:45.741Z,101588.66
2023-01-22T19:29:47.997Z,101599.31
2023-01-22T19:34:49.406Z,101609.91
2023-01-22T19:39:51.174Z,101618.00
2023-01-22T19:44:52.957Z,101618.00
2023-01-22T19:49:54.427Z,101618.19
2023-01-22T19:54:55.911Z,101626.97
2023-01-22T19:59:59.098Z,101633.19
2023-01-22T20:05:00.565Z,101632.25
2023-01-22T20:10:02.039Z,101639.13
2023-01-22T20:15:04.579Z,101639.31
2023-01-22T20:20:06.593Z,101644.66
2023-01-22T20:25:09.115Z,101639.13
2023-01-22T20:30:11.049Z,101634.44
2023-01-22T20:35:15.483Z,101644.31
2023-01-22T20:40:17.176Z,101647.63
2023-01-22T20:45:18.871Z,101654.84
2023-01-22T20:50:20.474Z,101650.63
2023-01-22T20:55:24.708Z,101644.25
2023-01-22T21:00:26.338Z,101652.22
2023-01-22T21:05:28.685Z,101654.25
2023-01-22T21:10:30.090Z,101656.84
2023-01-22T21:15:33.521Z,101662.97
2023-01-22T21:20:37.306Z,101665.78
2023-01-22T21:25:38.999Z,101681.97
2023-01-22T21:30:40.547Z,101679.91
2023-01-22T21:35:48.364Z,101687.75
2023-01-22T21:40:49.789Z,101687.78
2023-01-22T21:46:09.925Z,101689.22
2023-01-22T21:51:11.426Z,101687.50
2023-01-22T21:56:12.863Z,101690.28
2023-01-22T22:01:17.737Z,101690.88
2023-01-22T22:06:19.368Z,101700.44
2023-01-22T22:11:20.820Z,101694.19
2023-01-22T22:16:23.035Z,101714.69
2023-01-22T22:21:24.816Z,101724.16
2023-01-22T22:26:26.297Z,101722.34
2023-01-22T22:31:27.880Z,101731.28
2023-01-22T22:36:30.702Z,101741.91
2023-01-22T22:41:34.111Z,101742.66
2023-01-22T22:46:37.921Z,101744.50
2023-01-22T22:51:41.910Z,101762.81
2023-01-22T22:56:44.742Z,101768.50
2023-01-22T23:01:47.175Z,101787.84
2023-01-22T23:06:48.636Z,101791.38
2023-01-22T23:11:55.923Z,101793.16
2023-01-22T23:16:57.837Z,101786.78
2023-01-22T23:22:00.626Z,101787.53
2023-01-22T23:27:02.197Z,101779.72
2023-01-22T23:32:03.772Z,101784.19
2023-01-22T23:37:05.178Z,101781.03
2023-01-22T23:42:06.597Z,101780.09
2023-01-22T23:47:08.008Z,101786.16
2023-01-22T23:52:09.446Z,101789.59
2023-01-22T23:57:10.877Z,101789.47
